createdAt,value
2023-02-03T00:00:20.146Z,102080.03
2023-02-03T00:02:46.474Z,102075.22
2023-02-03T00:05:12.798Z,102074.53
2023-02-03T00:07:40.213Z,102072.72
2023-02-03T00:10:07.770Z,102062.09
2023-02-03T00:12:34.705Z,102049.94
2023-02-03T00:15:01.177Z,102056.31
2023-02-03T00:17:27.735Z,102050.63
2023-02-03T00:19:54.120Z,102042.75
2023-02-03T00:22:20.445Z,102042.88
2023-02-03T00:24:46.818Z,102047.63
2023-02-03T00:27:14.187Z,102039.84
2023-02-03T00:29:40.551Z,102045.38
2023-02-03T00:32:07.044Z,102045.22
2023-02-03T00:34:33.406Z,102042.75
2023-02-03T00:36:59.824Z,102033.91
2023-02-03T00:39:26.274Z,102025.34
2023-02-03T00:41:52.637Z,102024.38
2023-02-03T00:44:18.992Z,102022.84
2023-02-03T00:46:45.437Z,102014.69
2023-02-03T00:49:11.792Z,102021.22
2023-02-03T00:51:38.166Z,102031.16
2023-02-03T00:54:04.509Z,102033.06
2023-02-03T00:56:30.889Z,102035.56
2023-02-03T00:58:57.565Z,102035.44
2023-02-03T01:01:23.986Z,102030.44
2023-02-03T01:03:50.531Z,102045.22
2023-02-03T01:06:20.268Z,102044.16
2023-02-03T01:08:47.327Z,102058.13
2023-02-03T01:11:17.255Z,102062.53
2023-02-03T01:13:44.881Z,102062.41
2023-02-03T01:16:14.242Z,102066.53
2023-02-03T01:18:41.343Z,102078.03
2023-02-03T01:21:10.663Z,102099.97
2023-02-03T01:23:38.009Z,102087.44
2023-02-03T01:26:10.360Z,102084.91
2023-02-03T01:28:37.057Z,102093.63
2023-02-03T01:31:09.967Z,102083.28
2023-02-03T01:33:36.653Z,102077.03
2023-02-03T01:36:03.074Z,102075.25
2023-02-03T01:38:29.480Z,102080.66
2023-02-03T01:40:55.879Z,102083.00
2023-02-03T01:43:37.186Z,102075.41
2023-02-03T01:46:27.140Z,102079.81
2023-02-03T01:48:58.278Z,102093.50
2023-02-03T01:51:24.728Z,102080.25
2023-02-03T01:53:53.177Z,102093.50
2023-02-03T01:56:20.086Z,102078.03
2023-02-03T01:58:47.523Z,102062.28
2023-02-03T02:01:14.369Z,102055.50
2023-02-03T02:03:54.468Z,102073.28
2023-02-03T02:06:20.924Z,102078.97
2023-02-03T02:08:50.702Z,102084.09
2023-02-03T02:11:18.635Z,102091.16
2023-02-03T02:13:46.558Z,102087.28
2023-02-03T02:16:41.265Z,102076.34
2023-02-03T02:19:16.746Z,102062.13
2023-02-03T02:22:28.103Z,102062.13
2023-02-03T02:25:25.556Z,102052.47
2023-02-03T02:28:04.128Z,102043.88
2023-02-03T02:31:02.857Z,102041.69
2023-02-03T02:34:03.787Z,102045.00
2023-02-03T02:36:43.631Z,102037.25
2023-02-03T02:39:20.090Z,102038.38
2023-02-03T02:41:59.543Z,102032.28
2023-02-03T02:44:32.863Z,102048.88
2023-02-03T02:47:06.006Z,102040.84
2023-02-03T02:49:44.734Z,102040.84
2023-02-03T02:52:14.734Z,102049.69
2023-02-03T02:54:44.550Z,102043.06
2023-02-03T02:57:14.199Z,102051.91
2023-02-03T02:59:40.575Z,102053.84
2023-02-03T03:02:07.111Z,102039.75
2023-02-03T03:04:35.112Z,102022.31
2023-02-03T03:07:16.229Z,102004.38
2023-02-03T03:09:52.487Z,101987.94
2023-02-03T03:12:27.872Z,101999.13
2023-02-03T03:14:59.829Z,102003.00
2023-02-03T03:17:34.612Z,102007.94
2023-02-03T03:20:08.036Z,102027.31
2023-02-03T03:22:41.731Z,102030.06
2023-02-03T03:25:16.636Z,102036.16
2023-02-03T03:27:49.618Z,102035.44
2023-02-03T03:30:25.746Z,102052.88
2023-02-03T03:32:52.865Z,102045.97
2023-02-03T03:35:19.636Z,102045.53
2023-02-03T03:38:10.427Z,102033.66
2023-02-03T03:40:49.646Z,102030.34
2023-02-03T03:43:20.391Z,102025.09
2023-02-03T03:45:55.191Z,102022.06
2023-02-03T03:48:30.058Z,102031.03
2023-02-03T03:51:02.481Z,102036.16
2023-02-03T03:53:32.039Z,102042.50
2023-02-03T03:56:01.576Z,102030.06
2023-02-03T03:58:30.780Z,102024.81
2023-02-03T04:01:01.554Z,102022.31
2023-02-03T04:03:33.193Z,102018.59
2023-02-03T04:05:59.560Z,102017.75
2023-02-03T04:08:26.026Z,102022.19
2023-02-03T04:10:52.365Z,102017.66
2023-02-03T04:13:20.461Z,102016.13
2023-02-03T04:15:46.992Z,102015.28
2023-02-03T04:18:14.655Z,102030.78
2023-02-03T04:20:41.210Z,102044.72
2023-02-03T04:23:08.124Z,102027.69
2023-02-03T04:25:34.788Z,102024.53
2023-02-03T04:28:01.777Z,102021.22
2023-02-03T04:30:28.638Z,102015.97
2023-02-03T04:32:55.189Z,102017.34
2023-02-03T04:35:21.545Z,102024.28
2023-02-03T04:37:47.930Z,102028.69
2023-02-03T04:40:14.443Z,102036.56
2023-02-03T04:42:41.603Z,102021.50
2023-02-03T04:45:10.151Z,102017.34
2023-02-03T04:47:37.019Z,102017.50
2023-02-03T04:50:04.234Z,102018.19
2023-02-03T04:52:30.728Z,102014.88
2023-02-03T04:54:57.156Z,102013.88
2023-02-03T04:57:23.541Z,102008.63
2023-02-03T04:59:49.897Z,101998.28
2023-02-03T05:02:16.307Z,101999.13
2023-02-03T05:04:42.665Z,101999.38
2023-02-03T05:07:09.740Z,102003.78
2023-02-03T05:09:36.193Z,102001.88
2023-02-03T05:12:02.541Z,101996.50
2023-02-03T05:14:28.930Z,101988.75
2023-02-03T05:16:55.380Z,101992.34
2023-02-03T05:19:21.798Z,101997.59
2023-02-03T05:21:48.498Z,101996.75
2023-02-03T05:24:14.946Z,101987.94
2023-02-03T05:26:41.455Z,101981.00
2023-02-03T05:29:07.885Z,101989.72
2023-02-03T05:31:34.656Z,101982.66
2023-02-03T05:34:01.063Z,101985.00
2023-02-03T05:36:27.415Z,101990.25
2023-02-03T05:38:53.901Z,101996.63
2023-02-03T05:41:39.107Z,101983.34
2023-02-03T05:44:05.605Z,101997.88
2023-02-03T05:46:31.998Z,101990.25
2023-02-03T05:48:58.366Z,102009.31
2023-02-03T05:51:25.024Z,102010.00
2023-02-03T05:53:51.437Z,102015.16
2023-02-03T05:56:17.825Z,102001.19
2023-02-03T05:58:44.185Z,102004.63
2023-02-03T06:01:11.801Z,102002.84
2023-02-03T06:03:38.493Z,102004.34
2023-02-03T06:06:04.935Z,102008.78
2023-02-03T06:08:31.265Z,102015.81
2023-02-03T06:11:03.340Z,102017.63
2023-02-03T06:13:29.840Z,102002.13
2023-02-03T06:15:56.337Z,101999.78
2023-02-03T06:18:22.736Z,101998.13
2023-02-03T06:20:50.152Z,102009.59
2023-02-03T06:23:18.851Z,102010.16
2023-02-03T06:25:48.262Z,102016.66
2023-02-03T06:28:14.993Z,102020.09
2023-02-03T06:30:41.542Z,102025.34
2023-02-03T06:33:08.113Z,102024.53
2023-02-03T06:35:34.689Z,102020.38
2023-02-03T06:38:01.732Z,102002.13
2023-02-03T06:40:28.657Z,102001.03
2023-02-03T06:42:55.152Z,102010.69
2023-02-03T06:45:21.633Z,102013.31
2023-02-03T06:47:47.946Z,102008.22
2023-02-03T06:50:16.186Z,102010.16
2023-02-03T06:52:43.070Z,102013.31
2023-02-03T06:55:09.715Z,102003.81
2023-02-03T06:57:36.157Z,102005.44
2023-02-03T07:00:03.454Z,101991.06
2023-02-03T07:02:29.910Z,102008.19
2023-02-03T07:04:56.287Z,102010.69
2023-02-03T07:07:22.728Z,102010.69
2023-02-03T07:09:49.070Z,102014.56
2023-02-03T07:12:15.451Z,102018.56
2023-02-03T07:14:41.880Z,102014.28
2023-02-03T07:17:08.243Z,102018.44
2023-02-03T07:19:34.736Z,102017.03
2023-02-03T07:22:01.125Z,102021.16
2023-02-03T07:24:27.503Z,102009.28
2023-02-03T07:26:53.928Z,102025.88
2023-02-03T07:29:20.369Z,102018.84
2023-02-03T07:31:46.774Z,102016.47
2023-02-03T07:34:13.244Z,102020.09
2023-02-03T07:36:39.610Z,102025.34
2023-02-03T07:39:05.973Z,102027.69
2023-02-03T07:41:32.688Z,102021.47
2023-02-03T07:43:59.088Z,102022.56
2023-02-03T07:46:25.510Z,102016.22
2023-02-03T07:48:51.998Z,102016.34
2023-02-03T07:51:18.411Z,102017.03
2023-02-03T07:53:45.332Z,102016.91
2023-02-03T07:56:12.096Z,102023.00
2023-02-03T07:58:38.617Z,101999.34
2023-02-03T08:01:13.562Z,102000.97
2023-02-03T08:03:41.277Z,102030.00
2023-02-03T08:06:08.639Z,102037.75
2023-02-03T08:08:35.489Z,102034.03
2023-02-03T08:11:01.896Z,102023.94
2023-02-03T08:13:28.428Z,102037.75
2023-02-03T08:15:54.935Z,102039.13
2023-02-03T08:18:22.368Z,102039.03
2023-02-03T08:20:49.016Z,102064.56
2023-02-03T08:23:15.470Z,102066.41
2023-02-03T08:25:41.885Z,102062.66
2023-02-03T08:28:08.306Z,102052.44
2023-02-03T08:30:34.871Z,102055.19
2023-02-03T08:33:01.539Z,102066.25
2023-02-03T08:35:27.944Z,102060.16
2023-02-03T08:37:54.464Z,102055.06
2023-02-03T08:40:20.835Z,102048.69
2023-02-03T08:42:47.239Z,102057.25
2023-02-03T08:45:13.726Z,102062.09
2023-02-03T08:47:40.117Z,102067.34
2023-02-03T08:50:08.077Z,102057.69
2023-02-03T08:52:34.684Z,102060.47
2023-02-03T08:55:01.062Z,102065.28
2023-02-03T08:57:27.558Z,102069.44
2023-02-03T08:59:54.882Z,102058.81
2023-02-03T09:02:21.289Z,102067.13
2023-02-03T09:04:49.028Z,102074.28
2023-02-03T09:07:16.625Z,102086.00
2023-02-03T09:09:43.097Z,102084.53
2023-02-03T09:12:11.572Z,102086.88
2023-02-03T09:14:38.032Z,102074.84
2023-02-03T09:17:05.322Z,102074.41
2023-02-03T09:19:33.268Z,102074.56
2023-02-03T09:22:01.252Z,102075.66
2023-02-03T09:24:28.194Z,102080.25
2023-02-03T09:26:55.860Z,102076.22
2023-02-03T09:29:23.218Z,102083.00
2023-02-03T09:31:52.911Z,102083.13
2023-02-03T09:34:20.588Z,102078.16
2023-02-03T09:36:47.494Z,102072.09
2023-02-03T09:39:13.989Z,102083.28
2023-02-03T09:41:51.238Z,102072.09
2023-02-03T09:44:29.194Z,102083.28
2023-02-03T09:47:00.522Z,102089.63
2023-02-03T09:49:48.261Z,102079.28
2023-02-03T09:52:19.591Z,102073.75
2023-02-03T09:55:06.425Z,102081.75
2023-02-03T09:57:41.413Z,102086.16
2023-02-03T10:00:20.715Z,102072.50
2023-02-03T10:03:11.830Z,102081.34
2023-02-03T10:06:02.706Z,102099.03
2023-02-03T10:09:06.697Z,102087.00
2023-02-03T10:11:58.298Z,102094.03
2023-02-03T10:14:24.591Z,102084.66
2023-02-03T10:17:12.461Z,102086.47
2023-02-03T10:19:42.885Z,102080.22
2023-02-03T10:22:16.618Z,102086.47
2023-02-03T10:25:24.768Z,102083.44
2023-02-03T10:27:58.593Z,102088.69
2023-02-03T10:30:28.000Z,102086.88
2023-02-03T10:33:08.769Z,102070.00
2023-02-03T10:35:57.831Z,102069.72
2023-02-03T10:38:35.948Z,102077.59
2023-02-03T10:41:03.519Z,102082.03
2023-02-03T10:43:47.343Z,102082.72
2023-02-03T10:46:15.063Z,102086.72
2023-02-03T10:48:41.440Z,102086.88
2023-02-03T10:51:22.128Z,102075.53
2023-02-03T10:53:52.817Z,102077.75
2023-02-03T10:56:26.435Z,102074.00
2023-02-03T10:58:56.409Z,102077.63
2023-02-03T11:01:41.806Z,102063.50
2023-02-03T11:04:23.382Z,102077.91
2023-02-03T11:06:56.278Z,102066.25
2023-02-03T11:09:40.488Z,102063.63
2023-02-03T11:12:20.299Z,102066.25
2023-02-03T11:14:51.966Z,102074.44
2023-02-03T11:17:27.410Z,102066.53
2023-02-03T11:20:00.123Z,102073.88
2023-02-03T11:22:32.038Z,102071.25
2023-02-03T11:25:01.512Z,102081.75
2023-02-03T11:27:31.600Z,102078.00
2023-02-03T11:30:17.575Z,102083.81
2023-02-03T11:32:46.623Z,102085.75
2023-02-03T11:35:26.369Z,102083.28
2023-02-03T11:37:56.371Z,102093.63
2023-02-03T11:40:26.457Z,102086.44
2023-02-03T11:42:52.936Z,102088.22
2023-02-03T11:45:24.675Z,102093.06
2023-02-03T11:48:22.284Z,102101.25
2023-02-03T11:51:10.284Z,102101.25
2023-02-03T11:54:13.700Z,102100.69
2023-02-03T11:57:07.731Z,102091.16
2023-02-03T11:59:37.951Z,102099.72
2023-02-03T12:02:28.697Z,102095.84
2023-02-03T12:05:14.884Z,102094.19
2023-02-03T12:07:44.098Z,102088.94
2023-02-03T12:10:32.283Z,102090.31
2023-02-03T12:13:17.699Z,102093.91
2023-02-03T12:15:46.771Z,102093.75
2023-02-03T12:18:31.735Z,102095.84
2023-02-03T12:21:12.295Z,102090.84
2023-02-03T12:24:03.164Z,102088.38
2023-02-03T12:26:55.597Z,102083.97
2023-02-03T12:29:32.557Z,102093.47
2023-02-03T12:32:06.670Z,102098.16
2023-02-03T12:34:54.971Z,102104.41
2023-02-03T12:37:35.047Z,102098.31
2023-02-03T12:40:21.891Z,102104.25
2023-02-03T12:42:55.648Z,102106.75
2023-02-03T12:45:29.560Z,102095.28
2023-02-03T12:48:07.355Z,102099.41
2023-02-03T12:50:42.298Z,102093.88
2023-02-03T12:53:21.064Z,102083.91
2023-02-03T12:55:55.069Z,102100.91
2023-02-03T12:58:25.598Z,102095.22
2023-02-03T13:01:00.648Z,102094.66
2023-02-03T13:03:32.092Z,102093.38
2023-02-03T13:06:26.781Z,102095.91
2023-02-03T13:09:14.530Z,102090.88
2023-02-03T13:11:48.736Z,102092.53
2023-02-03T13:14:28.174Z,102092.25
2023-02-03T13:17:01.584Z,102089.31
2023-02-03T13:19:40.181Z,102083.78
2023-02-03T13:22:14.460Z,102095.66
2023-02-03T13:24:55.071Z,102091.09
2023-02-03T13:27:51.250Z,102094.28
2023-02-03T13:30:54.901Z,102090.06
2023-02-03T13:33:36.498Z,102087.59
2023-02-03T13:36:42.097Z,102091.59
2023-02-03T13:39:11.160Z,102080.91
2023-02-03T13:42:13.530Z,102071.63
2023-02-03T13:44:41.354Z,102077.56
2023-02-03T13:47:18.897Z,102067.03
2023-02-03T13:49:53.659Z,102066.34
2023-02-03T13:52:27.239Z,102055.81
2023-02-03T13:54:54.151Z,102055.31
2023-02-03T13:57:28.392Z,102073.72
2023-02-03T13:59:54.765Z,102078.16
2023-02-03T14:02:27.155Z,102079.00
2023-02-03T14:04:56.530Z,102091.31
2023-02-03T14:07:38.264Z,102088.28
2023-02-03T14:10:15.105Z,102089.53
2023-02-03T14:12:50.455Z,102097.28
2023-02-03T14:15:39.495Z,102106.84
2023-02-03T14:18:33.627Z,102107.13
2023-02-03T14:21:18.127Z,102095.09
2023-02-03T14:23:49.018Z,102091.78
2023-02-03T14:26:45.839Z,102090.97
2023-02-03T14:29:29.396Z,102090.13
2023-02-03T14:32:05.590Z,102094.72
2023-02-03T14:34:35.148Z,102093.72
2023-02-03T14:37:22.864Z,102090.25
2023-02-03T14:40:17.027Z,102105.06
2023-02-03T14:43:04.830Z,102102.59
2023-02-03T14:46:20.637Z,102117.97
2023-02-03T14:49:02.075Z,102126.81
2023-02-03T14:51:47.567Z,102128.25
2023-02-03T14:54:13.834Z,102129.59
2023-02-03T14:57:06.861Z,102129.34
2023-02-03T14:59:42.069Z,102135.56
2023-02-03T15:02:14.831Z,102135.28
2023-02-03T15:04:42.120Z,102134.19
2023-02-03T15:07:08.945Z,102153.03
2023-02-03T15:09:47.264Z,102163.28
2023-02-03T15:12:26.000Z,102188.09
2023-02-03T15:14:53.538Z,102188.66
2023-02-03T15:17:26.302Z,102194.34
2023-02-03T15:19:53.070Z,102191.41
2023-02-03T15:22:28.391Z,102193.03
2023-02-03T15:24:57.884Z,102203.41
2023-02-03T15:27:27.764Z,102180.88
2023-02-03T15:29:54.612Z,102195.94
2023-02-03T15:32:29.030Z,102201.31
2023-02-03T15:34:57.491Z,102203.25
2023-02-03T15:37:31.111Z,102207.25
2023-02-03T15:40:03.747Z,102196.91
2023-02-03T15:42:45.085Z,102199.53
2023-02-03T15:45:23.557Z,102204.22
2023-02-03T15:48:02.897Z,102210.47
2023-02-03T15:51:02.746Z,102207.69
2023-02-03T15:53:47.111Z,102215.44
2023-02-03T15:56:26.448Z,102220.28
2023-02-03T15:58:58.654Z,102217.25
2023-02-03T16:01:26.643Z,102220.97
2023-02-03T16:03:55.444Z,102212.00
2023-02-03T16:06:28.159Z,102223.47
2023-02-03T16:08:55.868Z,102214.47
2023-02-03T16:11:28.599Z,102223.88
2023-02-03T16:13:56.676Z,102221.41
2023-02-03T16:16:30.252Z,102232.19
2023-02-03T16:18:59.989Z,102240.75
2023-02-03T16:21:36.148Z,102253.88
2023-02-03T16:24:05.424Z,102260.63
2023-02-03T16:26:32.786Z,102265.63
2023-02-03T16:29:30.149Z,102265.78
2023-02-03T16:32:15.527Z,102273.91
2023-02-03T16:35:00.809Z,102262.00
2023-02-03T16:37:49.657Z,102256.63
2023-02-03T16:40:41.196Z,102257.59
2023-02-03T16:43:34.137Z,102267.38
2023-02-03T16:46:20.094Z,102271.81
2023-02-03T16:49:05.596Z,102282.44
2023-02-03T16:51:38.872Z,102283.13
2023-02-03T16:54:05.880Z,102288.38
2023-02-03T16:56:32.347Z,102294.38
2023-02-03T16:58:58.710Z,102292.44
2023-02-03T17:01:25.125Z,102298.50
2023-02-03T17:03:51.482Z,102295.06
2023-02-03T17:06:17.887Z,102303.75
2023-02-03T17:08:44.240Z,102302.94
2023-02-03T17:11:18.166Z,102312.91
2023-02-03T17:13:44.616Z,102301.00
2023-02-03T17:16:15.169Z,102309.16
2023-02-03T17:18:41.625Z,102316.06
2023-02-03T17:21:10.796Z,102322.28
2023-02-03T17:23:38.076Z,102323.50
2023-02-03T17:26:05.249Z,102314.66
2023-02-03T17:28:32.275Z,102321.56
2023-02-03T17:31:00.582Z,102314.53
2023-02-03T17:33:28.557Z,102318.50
2023-02-03T17:36:09.101Z,102316.72
2023-02-03T17:55:08.247Z,102357.34
2023-02-03T17:57:37.222Z,102361.06
2023-02-03T18:00:04.866Z,102361.75
2023-02-03T18:02:31.264Z,102361.75
2023-02-03T18:04:57.722Z,102366.59
2023-02-03T18:07:24.091Z,102360.22
2023-02-03T18:09:50.537Z,102353.19
2023-02-03T18:12:17.317Z,102361.75
2023-02-03T18:14:43.661Z,102359.13
2023-02-03T18:17:10.051Z,102368.94
2023-02-03T18:19:36.562Z,102363.13
2023-02-03T18:22:02.946Z,102368.22
2023-02-03T18:24:30.514Z,102372.78
2023-02-03T18:26:56.994Z,102376.09
2023-02-03T18:29:24.268Z,102385.22
2023-02-03T18:31:50.755Z,102386.16
2023-02-03T18:34:17.251Z,102390.25
2023-02-03T18:36:43.748Z,102388.34
2023-02-03T18:39:12.369Z,102390.13
2023-02-03T18:41:39.479Z,102401.69
2023-02-03T18:44:05.939Z,102392.88
2023-02-03T18:46:33.533Z,102398.13
2023-02-03T18:49:00.057Z,102400.75
2023-02-03T18:51:27.520Z,102401.69
2023-02-03T18:53:59.068Z,102403.38
2023-02-03T18:56:28.141Z,102403.50
2023-02-03T18:58:55.012Z,102402.78
2023-02-03T19:01:27.567Z,102407.22
2023-02-03T19:03:56.204Z,102410.34
2023-02-03T19:06:24.174Z,102412.41
2023-02-03T19:08:51.485Z,102410.72
2023-02-03T19:11:18.416Z,102411.00
2023-02-03T19:13:45.112Z,102404.91
2023-02-03T19:16:14.288Z,102405.84
2023-02-03T19:18:40.976Z,102405.75
2023-02-03T19:21:07.454Z,102414.56
2023-02-03T19:23:34.096Z,102412.31
2023-02-03T19:26:00.562Z,102417.31
2023-02-03T19:28:30.826Z,102425.44
2023-02-03T19:31:08.391Z,102427.25
2023-02-03T19:33:36.030Z,102426.41
2023-02-03T19:36:03.132Z,102428.78
2023-02-03T19:38:29.526Z,102434.72
2023-02-03T19:40:55.925Z,102436.41
2023-02-03T19:43:22.421Z,102438.09
2023-02-03T19:45:48.759Z,102446.19
2023-02-03T19:48:15.133Z,102454.63
2023-02-03T19:50:45.710Z,102451.31
2023-02-03T19:53:16.217Z,102439.97
2023-02-03T19:55:43.942Z,102449.53
2023-02-03T19:58:11.748Z,102453.81
2023-02-03T20:00:38.507Z,102461.56
2023-02-03T20:03:05.634Z,102457.41
2023-02-03T20:05:32.126Z,102466.13
2023-02-03T20:07:58.548Z,102475.78
2023-02-03T20:10:26.349Z,102476.22
2023-02-03T20:12:53.876Z,102478.16
2023-02-03T20:15:20.646Z,102494.00
2023-02-03T20:17:47.106Z,102489.47
2023-02-03T20:20:13.517Z,102501.50
2023-02-03T20:22:39.952Z,102508.69
2023-02-03T20:25:06.813Z,102501.78
2023-02-03T20:27:33.304Z,102502.47
2023-02-03T20:29:59.702Z,102501.66
2023-02-03T20:32:26.114Z,102504.13
2023-02-03T20:34:52.559Z,102501.50
2023-02-03T20:37:18.903Z,102511.06
2023-02-03T20:39:45.261Z,102504.13
2023-02-03T20:42:16.738Z,102503.56
2023-02-03T20:44:44.581Z,102512.28
2023-02-03T20:47:19.495Z,102504.63
2023-02-03T20:49:47.769Z,102510.13
2023-02-03T20:52:19.831Z,102509.06
2023-02-03T20:54:46.367Z,102511.25
2023-02-03T20:57:18.470Z,102509.56
2023-02-03T20:59:46.022Z,102514.94
2023-02-03T21:02:48.047Z,102522.22
2023-02-03T21:05:25.945Z,102517.78
2023-02-03T21:07:52.351Z,102529.13
2023-02-03T21:10:21.386Z,102529.13
2023-02-03T21:12:48.501Z,102535.22
2023-02-03T21:15:26.515Z,102532.59
2023-02-03T21:17:53.165Z,102527.59
2023-02-03T21:20:31.554Z,102529.97
2023-02-03T21:22:58.552Z,102533.41
2023-02-03T21:25:33.365Z,102540.22
2023-02-03T21:28:00.569Z,102539.25
2023-02-03T21:30:31.061Z,102538.78
2023-02-03T21:32:59.107Z,102539.75
2023-02-03T21:35:37.126Z,102538.09
2023-02-03T21:38:26.066Z,102527.59
2023-02-03T21:40:52.408Z,102528.44
2023-02-03T21:43:19.492Z,102532.00
2023-02-03T21:45:45.975Z,102535.00
2023-02-03T21:48:38.724Z,102535.00
2023-02-03T21:51:16.094Z,102536.81
2023-02-03T21:53:50.853Z,102542.38
2023-02-03T21:56:26.242Z,102541.22
2023-02-03T21:58:58.327Z,102555.16
2023-02-03T22:01:26.058Z,102552.66
2023-02-03T22:03:54.742Z,102548.09
2023-02-03T22:06:26.890Z,102545.03
2023-02-03T22:08:56.010Z,102543.13
2023-02-03T22:11:24.540Z,102556.94
2023-02-03T22:13:51.553Z,102559.56
2023-02-03T22:16:18.755Z,102552.53
2023-02-03T22:18:46.618Z,102555.03
2023-02-03T22:21:13.975Z,102567.44
2023-02-03T22:23:40.949Z,102571.13
2023-02-03T22:26:08.579Z,102570.06
2023-02-03T22:28:35.313Z,102561.50
2023-02-03T22:31:04.266Z,102567.44
2023-02-03T22:33:31.964Z,102582.56
2023-02-03T22:35:58.348Z,102578.31
2023-02-03T22:38:25.247Z,102587.97
2023-02-03T22:40:52.564Z,102595.81
2023-02-03T22:43:19.093Z,102587.25
2023-02-03T22:45:45.520Z,102594.19
2023-02-03T22:48:12.019Z,102589.88
2023-02-03T22:50:38.739Z,102589.88
2023-02-03T22:53:05.932Z,102604.66
2023-02-03T22:55:32.620Z,102606.44
2023-02-03T22:57:59.193Z,102614.19
2023-02-03T23:00:26.711Z,102609.06
2023-02-03T23:02:53.607Z,102604.78
2023-02-03T23:05:20.506Z,102603.00
2023-02-03T23:07:47.704Z,102610.72
2023-02-03T23:10:17.609Z,102615.16
2023-02-03T23:12:44.522Z,102625.41
2023-02-03T23:15:11.629Z,102618.50
2023-02-03T23:17:38.503Z,102619.81
2023-02-03T23:20:07.636Z,102626.72
2023-02-03T23:22:34.066Z,102628.50
2023-02-03T23:25:00.691Z,102639.13
2023-02-03T23:27:27.245Z,102635.81
2023-02-03T23:29:53.714Z,102635.66
2023-02-03T23:32:20.122Z,102635.09
2023-02-03T23:35:05.126Z,102640.06
2023-02-03T23:37:31.645Z,102642.25
2023-02-03T23:39:58.191Z,102649.38
2023-02-03T23:42:24.575Z,102650.34
2023-02-03T23:44:50.984Z,102650.34
2023-02-03T23:47:17.460Z,102647.00
2023-02-03T23:49:43.798Z,102645.09
2023-02-03T23:52:10.159Z,102664.53
2023-02-03T23:54:36.540Z,102665.38
2023-02-03T23:57:04.700Z,102656.44
2023-02-03T23:59:31.464Z,102675.50
